createdAt,value
2023-08-07T00:00:04.556Z,12.78
2023-08-07T00:03:09.131Z,12.69
2023-08-07T00:06:11.440Z,12.73
2023-08-07T00:09:13.555Z,12.75
2023-08-07T00:12:15.445Z,12.75
2023-08-07T00:15:17.566Z,12.74
2023-08-07T00:18:21.260Z,12.75
2023-08-07T00:21:23.900Z,12.76
2023-08-07T00:24:26.151Z,12.67
2023-08-07T00:27:28.390Z,12.67
2023-08-07T00:30:32.218Z,12.61
2023-08-07T00:33:36.167Z,12.60
2023-08-07T00:36:38.355Z,12.65
2023-08-07T00:39:40.214Z,12.62
2023-08-07T00:42:42.565Z,12.60
2023-08-07T00:45:48.404Z,12.54
2023-08-07T00:48:53.648Z,12.60
2023-08-07T00:51:55.704Z,12.52
2023-08-07T00:54:57.586Z,12.56
2023-08-07T00:58:00.044Z,12.54
2023-08-07T01:01:02.848Z,12.51
2023-08-07T01:04:06.469Z,12.55
2023-08-07T01:07:08.540Z,12.57
2023-08-07T01:10:10.789Z,12.56
2023-08-07T01:13:19.993Z,12.55
2023-08-07T01:16:30.263Z,12.57
2023-08-07T01:19:35.706Z,12.53
2023-08-07T01:22:39.183Z,12.56
2023-08-07T01:25:41.811Z,12.55
2023-08-07T01:28:54.547Z,12.56
2023-08-07T01:31:58.564Z,12.57
2023-08-07T01:35:03.099Z,12.58
2023-08-07T01:38:07.117Z,12.58
2023-08-07T01:41:10.285Z,12.55
2023-08-07T01:44:12.739Z,12.56
2023-08-07T01:47:16.013Z,12.47
2023-08-07T01:50:18.159Z,12.55
2023-08-07T01:53:21.405Z,12.55
2023-08-07T01:56:23.481Z,12.55
2023-08-07T01:59:25.359Z,12.58
2023-08-07T02:02:27.552Z,12.55
2023-08-07T02:05:29.650Z,12.50
2023-08-07T02:08:32.908Z,12.52
2023-08-07T02:11:35.078Z,12.51
2023-08-07T02:14:36.952Z,12.48
2023-08-07T02:17:42.100Z,12.50
2023-08-07T02:20:44.715Z,12.41
2023-08-07T02:23:48.095Z,12.42
2023-08-07T02:26:50.157Z,12.41
2023-08-07T02:29:55.416Z,12.48
2023-08-07T02:32:59.498Z,12.45
2023-08-07T02:36:02.227Z,12.50
2023-08-07T02:39:06.704Z,12.40
2023-08-07T02:42:08.790Z,12.43
2023-08-07T02:45:10.921Z,12.50
2023-08-07T02:48:13.374Z,12.45
2023-08-07T02:51:15.413Z,12.48
2023-08-07T02:54:19.003Z,12.49
2023-08-07T02:57:20.975Z,12.50
2023-08-07T03:00:24.433Z,12.51
2023-08-07T03:03:26.758Z,12.50
2023-08-07T03:06:29.142Z,12.52
2023-08-07T03:09:32.649Z,12.51
2023-08-07T03:12:34.840Z,12.51
2023-08-07T03:15:36.852Z,12.53
2023-08-07T03:18:41.801Z,12.45
2023-08-07T03:21:43.977Z,12.45
2023-08-07T03:24:49.484Z,12.48
2023-08-07T03:27:51.668Z,12.46
2023-08-07T03:30:53.658Z,12.32
2023-08-07T03:33:56.901Z,12.39
2023-08-07T03:37:00.864Z,12.36
2023-08-07T03:40:05.127Z,12.25
2023-08-07T03:43:08.418Z,12.24
2023-08-07T03:46:11.657Z,12.26
2023-08-07T03:49:13.853Z,12.28
2023-08-07T03:52:19.721Z,12.33
2023-08-07T03:55:23.540Z,12.32
2023-08-07T03:58:25.625Z,12.34
2023-08-07T04:01:27.653Z,12.37
2023-08-07T04:04:29.870Z,12.36
2023-08-07T04:07:31.739Z,12.39
2023-08-07T04:10:35.341Z,12.34
2023-08-07T04:13:37.423Z,12.36
2023-08-07T04:16:39.799Z,12.36
2023-08-07T04:19:41.718Z,12.34
2023-08-07T04:22:43.804Z,12.36
2023-08-07T04:25:48.513Z,12.35
2023-08-07T04:28:50.707Z,12.40
2023-08-07T04:31:52.882Z,12.43
2023-08-07T04:34:55.176Z,12.45
2023-08-07T04:37:57.740Z,12.41
2023-08-07T04:41:01.271Z,12.44
2023-08-07T04:44:05.804Z,12.42
2023-08-07T04:47:07.991Z,12.42
2023-08-07T04:50:11.156Z,12.38
2023-08-07T04:53:13.344Z,12.45
2023-08-07T04:56:16.378Z,12.52
2023-08-07T04:59:18.279Z,12.51
2023-08-07T05:02:20.728Z,12.55
2023-08-07T05:05:22.836Z,12.55
2023-08-07T05:08:24.663Z,12.60
2023-08-07T05:11:28.082Z,12.61
2023-08-07T05:14:30.781Z,12.63
2023-08-07T05:17:33.165Z,12.63
2023-08-07T05:20:35.529Z,12.65
2023-08-07T05:23:37.519Z,12.65
2023-08-07T05:26:40.786Z,12.63
2023-08-07T05:29:45.828Z,12.64
2023-08-07T05:32:47.945Z,12.66
2023-08-07T05:35:49.767Z,12.65
2023-08-07T05:38:51.824Z,12.66
2023-08-07T05:41:55.797Z,12.69
2023-08-07T05:44:57.966Z,12.70
2023-08-07T05:48:02.758Z,12.68
2023-08-07T05:51:07.778Z,12.66
2023-08-07T05:54:09.839Z,12.70
2023-08-07T05:57:14.411Z,12.73
2023-08-07T06:00:19.227Z,12.70
2023-08-07T06:03:21.265Z,12.70
2023-08-07T06:06:22.937Z,12.71
2023-08-07T06:09:25.205Z,12.73
2023-08-07T06:12:28.684Z,12.70
2023-08-07T06:15:52.355Z,12.66
2023-08-07T06:18:56.806Z,12.64
2023-08-07T06:21:59.485Z,12.61
2023-08-07T06:25:20.603Z,12.61
2023-08-07T06:28:24.003Z,12.64
2023-08-07T06:31:26.211Z,12.65
2023-08-07T06:34:28.960Z,12.64
2023-08-07T06:37:31.169Z,12.65
2023-08-07T06:40:33.556Z,12.61
2023-08-07T06:43:36.865Z,12.60
2023-08-07T06:46:39.116Z,12.57
2023-08-07T06:49:41.069Z,12.55
2023-08-07T06:52:43.142Z,12.53
2023-08-07T06:55:46.137Z,12.54
2023-08-07T06:58:49.568Z,12.55
2023-08-07T07:01:52.151Z,12.57
2023-08-07T07:04:54.307Z,12.58
2023-08-07T07:07:56.036Z,12.63
2023-08-07T07:10:59.637Z,12.59
2023-08-07T07:14:03.208Z,12.59
2023-08-07T07:17:07.129Z,12.55
2023-08-07T07:20:12.459Z,12.59
2023-08-07T07:23:16.945Z,12.62
2023-08-07T07:26:19.143Z,12.64
2023-08-07T07:29:23.345Z,12.70
2023-08-07T07:32:28.370Z,12.64
2023-08-07T07:35:30.377Z,12.63
2023-08-07T07:38:32.156Z,12.66
2023-08-07T07:41:34.919Z,12.70
2023-08-07T07:44:39.908Z,12.73
2023-08-07T07:47:42.090Z,12.74
2023-08-07T07:50:44.520Z,12.72
2023-08-07T07:53:48.014Z,12.72
2023-08-07T07:56:54.991Z,12.73
2023-08-07T08:00:02.421Z,12.76
2023-08-07T08:03:14.067Z,12.78
2023-08-07T08:06:16.311Z,12.78
2023-08-07T08:09:18.551Z,12.80
2023-08-07T08:12:23.512Z,12.86
2023-08-07T08:15:27.071Z,12.87
2023-08-07T08:18:29.241Z,12.90
2023-08-07T08:21:32.482Z,12.92
2023-08-07T08:24:34.708Z,12.94
2023-08-07T08:27:37.323Z,12.95
2023-08-07T08:30:41.191Z,12.98
2023-08-07T08:33:43.145Z,12.99
2023-08-07T08:36:45.221Z,13.05
2023-08-07T08:39:47.066Z,13.07
2023-08-07T08:42:50.363Z,13.06
2023-08-07T08:45:53.880Z,13.03
2023-08-07T08:48:58.836Z,13.05
2023-08-07T08:52:01.319Z,13.13
2023-08-07T08:55:04.042Z,13.14
2023-08-07T08:58:07.816Z,13.08
2023-08-07T09:01:13.691Z,13.11
2023-08-07T09:04:16.107Z,13.13
2023-08-07T09:07:21.287Z,13.16
2023-08-07T09:10:25.206Z,13.22
2023-08-07T09:13:29.284Z,13.27
2023-08-07T09:16:34.059Z,13.53
2023-08-07T09:19:36.531Z,13.78
2023-08-07T09:22:38.957Z,13.71
2023-08-07T09:25:42.289Z,13.55
2023-08-07T09:28:44.509Z,13.48
2023-08-07T09:31:48.877Z,13.43
2023-08-07T09:34:52.074Z,13.58
2023-08-07T09:37:54.358Z,13.69
2023-08-07T09:40:58.896Z,13.84
2023-08-07T09:44:09.139Z,13.99
2023-08-07T09:47:18.061Z,14.10
2023-08-07T09:50:20.064Z,14.27
2023-08-07T09:53:27.578Z,14.33
2023-08-07T09:56:30.439Z,14.25
2023-08-07T09:59:33.800Z,14.08
2023-08-07T10:02:37.492Z,13.91
2023-08-07T10:05:39.798Z,13.64
2023-08-07T10:08:43.546Z,13.46
2023-08-07T10:11:46.348Z,13.18
2023-08-07T10:14:49.389Z,13.05
2023-08-07T10:17:52.907Z,12.98
2023-08-07T10:20:56.397Z,12.99
2023-08-07T10:23:59.660Z,12.92
2023-08-07T10:27:02.485Z,12.91
2023-08-07T10:30:09.032Z,12.96
2023-08-07T10:33:14.423Z,13.08
2023-08-07T10:36:18.308Z,13.19
2023-08-07T10:39:20.356Z,13.26
2023-08-07T10:42:22.326Z,13.45
2023-08-07T10:45:25.254Z,13.63
2023-08-07T10:48:29.581Z,13.60
2023-08-07T10:51:32.809Z,13.72
2023-08-07T10:54:43.940Z,13.96
2023-08-07T10:57:48.421Z,14.08
2023-08-07T11:00:50.466Z,14.08
2023-08-07T11:03:55.485Z,14.07
2023-08-07T11:06:57.921Z,14.17
2023-08-07T11:10:01.078Z,14.20
2023-08-07T11:13:03.116Z,14.09
2023-08-07T11:16:05.124Z,13.80
2023-08-07T11:19:09.514Z,13.33
2023-08-07T11:22:11.517Z,13.11
2023-08-07T11:25:14.811Z,12.83
2023-08-07T11:28:19.458Z,12.75
2023-08-07T11:31:22.889Z,12.91
2023-08-07T11:34:26.864Z,13.24
2023-08-07T11:37:29.300Z,13.45
2023-08-07T11:40:31.192Z,13.61
2023-08-07T11:43:34.814Z,13.72
2023-08-07T11:46:37.193Z,13.60
2023-08-07T11:49:40.695Z,13.47
2023-08-07T11:52:42.749Z,13.34
2023-08-07T11:55:47.814Z,13.29
2023-08-07T11:58:50.546Z,13.17
2023-08-07T12:01:52.677Z,12.77
2023-08-07T12:05:00.731Z,12.65
2023-08-07T12:08:03.719Z,12.71
2023-08-07T12:11:07.162Z,12.86
2023-08-07T12:14:09.236Z,13.04
2023-08-07T12:17:10.959Z,13.32
2023-08-07T12:20:17.770Z,13.52
2023-08-07T12:23:22.600Z,13.61
2023-08-07T12:26:24.695Z,13.57
2023-08-07T12:29:30.187Z,13.77
2023-08-07T12:32:32.335Z,13.95
2023-08-07T12:35:36.040Z,14.23
2023-08-07T12:38:38.146Z,14.32
2023-08-07T12:44:44.652Z,14.64
2023-08-07T12:47:46.709Z,14.75
2023-08-07T12:50:49.879Z,14.91
2023-08-07T12:53:52.674Z,14.86
2023-08-07T12:56:56.651Z,14.97
2023-08-07T12:59:59.174Z,14.74
2023-08-07T13:03:01.210Z,14.59
2023-08-07T13:06:07.707Z,14.54
2023-08-07T13:09:09.616Z,14.75
2023-08-07T13:12:11.371Z,14.72
2023-08-07T13:15:14.920Z,14.60
2023-08-07T13:18:17.905Z,14.97
2023-08-07T13:21:21.385Z,14.99
2023-08-07T13:24:23.442Z,14.79
2023-08-07T13:27:25.148Z,14.67
2023-08-07T13:30:28.661Z,14.49
2023-08-07T13:33:32.805Z,14.39
2023-08-07T13:36:37.590Z,14.31
2023-08-07T13:39:39.540Z,14.51
2023-08-07T13:42:42.246Z,14.64
2023-08-07T13:45:44.255Z,14.96
2023-08-07T13:48:46.465Z,15.03
2023-08-07T13:51:50.096Z,14.86
2023-08-07T13:54:52.315Z,14.73
2023-08-07T13:57:55.840Z,14.62
2023-08-07T14:00:58.759Z,14.57
2023-08-07T14:04:01.080Z,14.86
2023-08-07T14:07:05.433Z,15.09
2023-08-07T14:10:08.529Z,15.25
2023-08-07T14:13:12.853Z,15.25
2023-08-07T14:16:15.023Z,15.21
2023-08-07T14:19:16.776Z,15.40
2023-08-07T14:22:20.195Z,15.36
2023-08-07T14:25:23.534Z,15.22
2023-08-07T14:28:25.469Z,15.16
2023-08-07T14:31:27.423Z,15.55
2023-08-07T14:34:29.172Z,15.69
2023-08-07T14:37:32.773Z,15.64
2023-08-07T14:40:34.784Z,15.72
2023-08-07T14:43:36.643Z,15.76
2023-08-07T14:46:39.674Z,15.52
2023-08-07T14:49:41.787Z,15.35
2023-08-07T14:52:44.913Z,15.15
2023-08-07T14:55:48.210Z,15.41
2023-08-07T14:58:50.255Z,15.87
2023-08-07T15:01:53.712Z,15.97
2023-08-07T15:04:56.023Z,16.08
2023-08-07T15:08:01.510Z,16.20
2023-08-07T15:11:03.565Z,16.19
2023-08-07T15:14:06.039Z,15.82
2023-08-07T15:17:08.331Z,15.48
2023-08-07T15:20:11.466Z,15.34
2023-08-07T15:23:14.953Z,15.19
2023-08-07T15:26:17.192Z,15.09
2023-08-07T15:29:19.691Z,15.13
2023-08-07T15:32:22.826Z,15.20
2023-08-07T15:35:25.443Z,15.26
2023-08-07T15:38:29.649Z,15.31
2023-08-07T15:41:31.614Z,15.34
2023-08-07T15:44:33.994Z,15.33
2023-08-07T15:47:36.228Z,15.22
2023-08-07T15:50:40.051Z,15.09
2023-08-07T15:53:43.648Z,15.01
2023-08-07T15:56:45.496Z,14.93
2023-08-07T15:59:47.425Z,14.72
2023-08-07T16:02:49.209Z,14.41
2023-08-07T16:05:51.443Z,14.10
2023-08-07T16:08:57.417Z,13.88
2023-08-07T16:11:59.609Z,13.59
2023-08-07T16:15:02.724Z,13.43
2023-08-07T16:18:05.235Z,13.47
2023-08-07T16:21:07.156Z,13.30
2023-08-07T16:24:10.517Z,13.21
2023-08-07T16:27:12.611Z,13.20
2023-08-07T16:30:15.008Z,13.27
2023-08-07T16:33:17.338Z,13.16
2023-08-07T16:36:20.738Z,13.11
2023-08-07T16:39:24.682Z,13.06
2023-08-07T16:42:30.124Z,13.01
2023-08-07T16:45:33.118Z,12.94
2023-08-07T16:48:35.090Z,12.93
2023-08-07T16:51:37.145Z,12.86
2023-08-07T16:54:40.338Z,12.86
2023-08-07T17:01:02.624Z,12.81
2023-08-07T17:04:04.680Z,12.90
2023-08-07T17:07:07.078Z,12.87
2023-08-07T17:10:14.630Z,12.87
2023-08-07T17:13:16.632Z,12.85
2023-08-07T17:16:19.416Z,12.83
2023-08-07T17:19:22.647Z,12.84
2023-08-07T17:22:24.788Z,12.78
2023-08-07T17:25:27.978Z,12.81
2023-08-07T17:28:31.419Z,12.82
2023-08-07T17:31:33.505Z,12.80
2023-08-07T17:34:35.638Z,12.82
2023-08-07T17:37:37.425Z,12.88
2023-08-07T17:40:42.104Z,12.99
2023-08-07T17:43:44.065Z,13.04
2023-08-07T17:46:46.115Z,13.05
2023-08-07T17:49:48.066Z,13.01
2023-08-07T17:52:50.411Z,12.92
2023-08-07T17:55:53.840Z,12.88
2023-08-07T17:58:56.557Z,12.87
2023-08-07T18:01:58.605Z,12.82
2023-08-07T18:05:00.395Z,12.91
2023-08-07T18:08:02.568Z,12.93
2023-08-07T18:11:05.776Z,12.96
2023-08-07T18:14:08.164Z,12.93
2023-08-07T18:17:10.173Z,12.87
2023-08-07T18:20:12.898Z,12.91
2023-08-07T18:23:15.478Z,12.88
2023-08-07T18:26:18.786Z,12.83
2023-08-07T18:29:21.111Z,12.78
2023-08-07T18:32:23.644Z,12.77
2023-08-07T18:35:25.893Z,12.71
2023-08-07T18:38:28.485Z,12.71
2023-08-07T18:41:32.006Z,12.70
2023-08-07T18:44:34.080Z,12.71
2023-08-07T18:47:36.521Z,12.66
2023-08-07T18:50:38.616Z,12.62
2023-08-07T18:53:41.180Z,12.59
2023-08-07T18:56:44.919Z,12.57
2023-08-07T18:59:47.070Z,12.46
2023-08-07T19:02:49.518Z,12.44
2023-08-07T19:05:51.784Z,12.42
2023-08-07T19:08:54.257Z,12.40
2023-08-07T19:11:57.789Z,12.34
2023-08-07T19:15:01.202Z,12.38
2023-08-07T19:18:05.144Z,12.35
2023-08-07T19:21:07.372Z,12.38
2023-08-07T19:24:09.991Z,12.41
2023-08-07T19:27:14.092Z,12.42
2023-08-07T19:30:16.057Z,12.42
2023-08-07T19:33:18.237Z,12.41
2023-08-07T19:36:20.896Z,12.39
2023-08-07T19:39:23.756Z,12.43
2023-08-07T19:42:27.488Z,12.37
2023-08-07T19:45:29.604Z,12.37
2023-08-07T19:48:32.151Z,12.36
2023-08-07T19:51:34.336Z,12.33
2023-08-07T19:54:36.677Z,12.31
2023-08-07T19:57:40.248Z,12.29
2023-08-07T20:00:42.347Z,12.21
2023-08-07T20:03:44.926Z,12.25
2023-08-07T20:06:47.068Z,12.22
2023-08-07T20:09:50.233Z,12.23
2023-08-07T20:12:53.845Z,12.20
2023-08-07T20:15:57.043Z,12.17
2023-08-07T20:19:01.727Z,12.12
2023-08-07T20:22:04.035Z,12.14
2023-08-07T20:25:06.915Z,12.15
2023-08-07T20:28:10.596Z,12.14
2023-08-07T20:31:12.583Z,12.17
2023-08-07T20:34:15.060Z,12.21
2023-08-07T20:37:16.904Z,12.20
2023-08-07T20:40:18.960Z,12.11
2023-08-07T20:43:22.631Z,12.12
2023-08-07T20:46:25.440Z,12.08
2023-08-07T20:49:27.519Z,12.06
2023-08-07T20:52:29.792Z,12.02
2023-08-07T20:55:31.907Z,11.97
2023-08-07T20:58:41.973Z,11.94
2023-08-07T21:01:47.980Z,11.94
2023-08-07T21:04:50.234Z,11.86
2023-08-07T21:07:52.590Z,11.85
2023-08-07T21:10:55.734Z,11.79
2023-08-07T21:13:59.889Z,11.83
2023-08-07T21:17:02.065Z,11.78
2023-08-07T21:20:04.775Z,11.80
2023-08-07T21:23:10.035Z,11.79
2023-08-07T21:26:12.225Z,11.79
2023-08-07T21:29:15.571Z,11.78
2023-08-07T21:32:17.771Z,11.77
2023-08-07T21:35:19.865Z,11.74
2023-08-07T21:38:21.749Z,11.73
2023-08-07T21:41:25.254Z,11.70
2023-08-07T21:44:28.796Z,11.66
2023-08-07T21:47:30.802Z,11.67
2023-08-07T21:50:32.945Z,11.70
2023-08-07T21:53:35.201Z,11.70
2023-08-07T21:56:38.488Z,11.72
2023-08-07T21:59:41.801Z,11.74
2023-08-07T22:02:44.534Z,11.75
2023-08-07T22:05:46.664Z,11.74
2023-08-07T22:08:48.667Z,11.75
2023-08-07T22:11:52.443Z,11.70
2023-08-07T22:14:57.402Z,11.67
2023-08-07T22:18:00.810Z,11.65
2023-08-07T22:21:03.126Z,11.61
2023-08-07T22:24:06.750Z,11.52
2023-08-07T22:27:09.632Z,11.47
2023-08-07T22:30:14.696Z,11.48
2023-08-07T22:33:16.848Z,11.44
2023-08-07T22:36:20.165Z,11.46
2023-08-07T22:39:22.251Z,11.42
2023-08-07T22:42:24.818Z,11.42
2023-08-07T22:45:28.326Z,11.35
2023-08-07T22:48:30.461Z,11.38
2023-08-07T22:51:32.347Z,11.38
2023-08-07T22:54:34.435Z,11.33
2023-08-07T22:57:36.505Z,11.34
2023-08-07T23:00:40.072Z,11.31
2023-08-07T23:03:43.376Z,11.28
2023-08-07T23:06:45.453Z,11.28
2023-08-07T23:09:47.514Z,11.30
2023-08-07T23:12:49.530Z,11.32
2023-08-07T23:15:53.906Z,11.33
2023-08-07T23:18:56.115Z,11.30
2023-08-07T23:21:58.337Z,11.31
2023-08-07T23:25:01.653Z,11.30
2023-08-07T23:28:03.956Z,11.25
2023-08-07T23:31:07.380Z,11.23
2023-08-07T23:34:09.772Z,11.26
2023-08-07T23:37:11.823Z,11.28
2023-08-07T23:40:13.803Z,11.30
2023-08-07T23:43:15.821Z,11.29
2023-08-07T23:46:18.926Z,11.29
2023-08-07T23:49:22.008Z,11.29
2023-08-07T23:52:24.079Z,11.27
2023-08-07T23:55:26.038Z,11.30
2023-08-07T23:58:28.386Z,11.28
